sensor_id;sensor_type;location;lat;lon;timestamp;pressure;altitude;pressure_sealevel;temperature;humidity
60170;BME280;46042;49.444;6.862;2022-09-09T00:06:46;98191.28;;;14.79;100.00
60170;BME280;46042;49.444;6.862;2022-09-09T00:09:19;98185.13;;;14.78;100.00
60170;BME280;46042;49.444;6.862;2022-09-09T00:15:00;98175.94;;;14.73;100.00
60170;BME280;46042;49.444;6.862;2022-09-09T00:17:36;98182.19;;;14.72;100.00
60170;BME280;46042;49.444;6.862;2022-09-09T00:21:15;98173.81;;;14.67;100.00
60170;BME280;46042;49.444;6.862;2022-09-09T00:23:39;98180.38;;;14.62;100.00
60170;BME280;46042;49.444;6.862;2022-09-09T00:26:16;98177.84;;;14.61;100.00
60170;BME280;46042;49.444;6.862;2022-09-09T00:28:58;98172.53;;;14.51;100.00
60170;BME280;46042;49.444;6.862;2022-09-09T00:31:31;98167.09;;;14.43;100.00
60170;BME280;46042;49.444;6.862;2022-09-09T00:34:24;98171.56;;;14.42;100.00
60170;BME280;46042;49.444;6.862;2022-09-09T00:36:52;98172.53;;;14.41;100.00
60170;BME280;46042;49.444;6.862;2022-09-09T00:39:32;98164.72;;;14.40;100.00
60170;BME280;46042;49.444;6.862;2022-09-09T00:42:13;98163.47;;;14.34;100.00
60170;BME280;46042;49.444;6.862;2022-09-09T00:45:52;98179.47;;;14.32;100.00
60170;BME280;46042;49.444;6.862;2022-09-09T00:47:52;98175.31;;;14.30;100.00
60170;BME280;46042;49.444;6.862;2022-09-09T00:50:29;98169.44;;;14.26;100.00
60170;BME280;46042;49.444;6.862;2022-09-09T00:58:26;98174.72;;;14.16;100.00
60170;BME280;46042;49.444;6.862;2022-09-09T01:01:12;98183.06;;;14.12;100.00
60170;BME280;46042;49.444;6.862;2022-09-09T01:03:56;98188.50;;;14.10;100.00
60170;BME280;46042;49.444;6.862;2022-09-09T01:06:36;98182.50;;;14.08;100.00
60170;BME280;46042;49.444;6.862;2022-09-09T01:09:26;98189.47;;;14.09;100.00
60170;BME280;46042;49.444;6.862;2022-09-09T01:12:16;98186.53;;;14.12;100.00
60170;BME280;46042;49.444;6.862;2022-09-09T01:14:51;98189.06;;;14.14;100.00
60170;BME280;46042;49.444;6.862;2022-09-09T01:17:30;98186.13;;;14.17;100.00
60170;BME280;46042;49.444;6.862;2022-09-09T01:23:16;98190.22;;;14.21;100.00
60170;BME280;46042;49.444;6.862;2022-09-09T01:26:09;98189.09;;;14.23;100.00
60170;BME280;46042;49.444;6.862;2022-09-09T01:28:38;98182.00;;;14.24;100.00
60170;BME280;46042;49.444;6.862;2022-09-09T01:31:11;98190.75;;;14.25;100.00
60170;BME280;46042;49.444;6.862;2022-09-09T01:33:40;98184.50;;;14.26;100.00
60170;BME280;46042;49.444;6.862;2022-09-09T01:36:37;98191.47;;;14.27;100.00
60170;BME280;46042;49.444;6.862;2022-09-09T01:39:06;98187.00;;;14.27;100.00
60170;BME280;46042;49.444;6.862;2022-09-09T01:41:33;98192.03;;;14.30;100.00
60170;BME280;46042;49.444;6.862;2022-09-09T01:43:59;98187.59;;;14.31;100.00
60170;BME280;46042;49.444;6.862;2022-09-09T01:46:28;98190.94;;;14.33;100.00
60170;BME280;46042;49.444;6.862;2022-09-09T01:48:57;98195.97;;;14.36;100.00
60170;BME280;46042;49.444;6.862;2022-09-09T01:51:25;98188.97;;;14.35;100.00
60170;BME280;46042;49.444;6.862;2022-09-09T01:53:52;98185.47;;;14.34;100.00
60170;BME280;46042;49.444;6.862;2022-09-09T01:59:40;98179.78;;;14.39;100.00
60170;BME280;46042;49.444;6.862;2022-09-09T02:07:52;98184.69;;;14.44;100.00
60170;BME280;46042;49.444;6.862;2022-09-09T02:10:45;98188.31;;;14.43;100.00
60170;BME280;46042;49.444;6.862;2022-09-09T02:13:14;98176.84;;;14.42;100.00
60170;BME280;46042;49.444;6.862;2022-09-09T02:16:07;98180.34;;;14.43;100.00
60170;BME280;46042;49.444;6.862;2022-09-09T02:18:41;98177.53;;;14.44;100.00
60170;BME280;46042;49.444;6.862;2022-09-09T02:21:11;98174.06;;;14.44;100.00
60170;BME280;46042;49.444;6.862;2022-09-09T02:23:42;98177.13;;;14.39;100.00
60170;BME280;46042;49.444;6.862;2022-09-09T02:26:10;98177.13;;;14.39;100.00
60170;BME280;46042;49.444;6.862;2022-09-09T02:28:40;98170.16;;;14.38;100.00
60170;BME280;46042;49.444;6.862;2022-09-09T02:31:08;98173.22;;;14.33;100.00
60170;BME280;46042;49.444;6.862;2022-09-09T02:33:40;98164.56;;;14.31;100.00
60170;BME280;46042;49.444;6.862;2022-09-09T02:36:11;98169.03;;;14.31;100.00
60170;BME280;46042;49.444;6.862;2022-09-09T02:38:43;98174.75;;;14.36;100.00
60170;BME280;46042;49.444;6.862;2022-09-09T02:41:11;98168.47;;;14.37;100.00
60170;BME280;46042;49.444;6.862;2022-09-09T02:43:38;98168.59;;;14.35;100.00
60170;BME280;46042;49.444;6.862;2022-09-09T02:48:56;98167.38;;;14.30;100.00
60170;BME280;46042;49.444;6.862;2022-09-09T02:51:58;98153.28;;;14.29;100.00
60170;BME280;46042;49.444;6.862;2022-09-09T02:54:31;98164.44;;;14.33;100.00
60170;BME280;46042;49.444;6.862;2022-09-09T02:57:11;98168.06;;;14.32;100.00
60170;BME280;46042;49.444;6.862;2022-09-09T02:59:39;98171.53;;;14.32;100.00
60170;BME280;46042;49.444;6.862;2022-09-09T03:02:06;98166.94;;;14.34;100.00
60170;BME280;46042;49.444;6.862;2022-09-09T03:04:32;98168.59;;;14.35;100.00
60170;BME280;46042;49.444;6.862;2022-09-09T03:06:59;98164.56;;;14.31;100.00
60170;BME280;46042;49.444;6.862;2022-09-09T03:09:26;98163.59;;;14.32;100.00
60170;BME280;46042;49.444;6.862;2022-09-09T03:11:53;98162.88;;;14.30;100.00
60170;BME280;46042;49.444;6.862;2022-09-09T03:14:22;98168.31;;;14.29;100.00
60170;BME280;46042;49.444;6.862;2022-09-09T03:16:51;98160.81;;;14.24;100.00
60170;BME280;46042;49.444;6.862;2022-09-09T03:19:22;98165.41;;;14.22;100.00
60170;BME280;46042;49.444;6.862;2022-09-09T03:21:49;98166.63;;;14.18;100.00
60170;BME280;46042;49.444;6.862;2022-09-09T03:24:16;98165.09;;;14.15;100.00
60170;BME280;46042;49.444;6.862;2022-09-09T03:26:42;98161.59;;;14.15;100.00
60170;BME280;46042;49.444;6.862;2022-09-09T03:29:12;98176.53;;;14.16;100.00
60170;BME280;46042;49.444;6.862;2022-09-09T03:31:39;98165.94;;;14.16;100.00
60170;BME280;46042;49.444;6.862;2022-09-09T03:34:06;98168.56;;;14.16;100.00
60170;BME280;46042;49.444;6.862;2022-09-09T03:36:33;98178.19;;;14.17;100.00
60170;BME280;46042;49.444;6.862;2022-09-09T03:39:00;98171.91;;;14.18;100.00
60170;BME280;46042;49.444;6.862;2022-09-09T03:41:29;98170.94;;;14.19;100.00
60170;BME280;46042;49.444;6.862;2022-09-09T03:43:56;98176.13;;;14.20;100.00
60170;BME280;46042;49.444;6.862;2022-09-09T03:46:24;98170.13;;;14.18;100.00
60170;BME280;46042;49.444;6.862;2022-09-09T03:48:51;98164.25;;;14.15;100.00
60170;BME280;46042;49.444;6.862;2022-09-09T03:51:18;98172.47;;;14.12;100.00
60170;BME280;46042;49.444;6.862;2022-09-09T03:53:48;98167.88;;;14.14;100.00
60170;BME280;46042;49.444;6.862;2022-09-09T03:56:17;98175.13;;;14.12;100.00
60170;BME280;46042;49.444;6.862;2022-09-09T03:58:44;98168.00;;;14.12;100.00
60170;BME280;46042;49.444;6.862;2022-09-09T04:01:12;98167.06;;;14.13;100.00
60170;BME280;46042;49.444;6.862;2022-09-09T04:03:40;98169.56;;;14.15;100.00
60170;BME280;46042;49.444;6.862;2022-09-09T04:06:08;98169.81;;;14.12;100.00
60170;BME280;46042;49.444;6.862;2022-09-09T04:08:35;98168.97;;;14.11;100.00
60170;BME280;46042;49.444;6.862;2022-09-09T04:11:03;98171.50;;;14.13;100.00
60170;BME280;46042;49.444;6.862;2022-09-09T04:13:33;98175.00;;;14.13;100.00
60170;BME280;46042;49.444;6.862;2022-09-09T04:16:01;98175.25;;;14.10;100.00
60170;BME280;46042;49.444;6.862;2022-09-09T04:18:28;98179.31;;;14.14;100.00
60170;BME280;46042;49.444;6.862;2022-09-09T04:20:55;98180.16;;;14.15;100.00
60170;BME280;46042;49.444;6.862;2022-09-09T04:23:26;98189.19;;;14.12;100.00
60170;BME280;46042;49.444;6.862;2022-09-09T04:25:56;98181.53;;;14.09;100.00
60170;BME280;46042;49.444;6.862;2022-09-09T04:28:25;98179.72;;;14.10;100.00
60170;BME280;46042;49.444;6.862;2022-09-09T04:30:52;98176.22;;;14.09;100.00
60170;BME280;46042;49.444;6.862;2022-09-09T04:33:19;98180.69;;;14.08;100.00
60170;BME280;46042;49.444;6.862;2022-09-09T04:35:47;98186.13;;;14.07;100.00
60170;BME280;46042;49.444;6.862;2022-09-09T04:38:16;98186.13;;;14.07;100.00
60170;BME280;46042;49.444;6.862;2022-09-09T04:40:46;98193.25;;;14.06;100.00
60170;BME280;46042;49.444;6.862;2022-09-09T04:43:14;98187.09;;;14.06;100.00
60170;BME280;46042;49.444;6.862;2022-09-09T04:45:42;98196.13;;;14.03;100.00
60170;BME280;46042;49.444;6.862;2022-09-09T04:48:09;98194.06;;;14.07;100.00
60170;BME280;46042;49.444;6.862;2022-09-09T04:50:41;98193.47;;;14.03;100.00
60170;BME280;46042;49.444;6.862;2022-09-09T04:53:08;98199.63;;;14.04;100.00
60170;BME280;46042;49.444;6.862;2022-09-09T04:55:35;98194.22;;;14.05;100.00
60170;BME280;46042;49.444;6.862;2022-09-09T04:58:06;98202.00;;;14.07;100.00
60170;BME280;46042;49.444;6.862;2022-09-09T05:00:33;98200.22;;;14.07;100.00
60170;BME280;46042;49.444;6.862;2022-09-09T05:03:03;98196.72;;;14.07;100.00
60170;BME280;46042;49.444;6.862;2022-09-09T05:05:31;98205.47;;;13.98;100.00
60170;BME280;46042;49.444;6.862;2022-09-09T05:08:05;98200.88;;;14.00;100.00
60170;BME280;46042;49.444;6.862;2022-09-09T05:10:33;98208.81;;;14.00;100.00
60170;BME280;46042;49.444;6.862;2022-09-09T05:13:00;98208.94;;;13.98;100.00
60170;BME280;46042;49.444;6.862;2022-09-09T05:15:27;98200.03;;;13.99;100.00
60170;BME280;46042;49.444;6.862;2022-09-09T05:17:59;98200.59;;;14.03;100.00
60170;BME280;46042;49.444;6.862;2022-09-09T05:20:27;98204.22;;;14.02;100.00
60170;BME280;46042;49.444;6.862;2022-09-09T05:22:54;98194.88;;;13.98;100.00
60170;BME280;46042;49.444;6.862;2022-09-09T05:25:22;98198.63;;;13.95;100.00
60170;BME280;46042;49.444;6.862;2022-09-09T05:27:48;98201.00;;;13.98;100.00
60170;BME280;46042;49.444;6.862;2022-09-09T05:30:15;98209.66;;;14.00;100.00
60170;BME280;46042;49.444;6.862;2022-09-09T05:32:45;98210.09;;;14.05;100.00
60170;BME280;46042;49.444;6.862;2022-09-09T05:35:11;98207.47;;;14.05;100.00
60170;BME280;46042;49.444;6.862;2022-09-09T05:37:39;98202.16;;;14.05;100.00
60170;BME280;46042;49.444;6.862;2022-09-09T05:40:06;98203.69;;;14.08;100.00
60170;BME280;46042;49.444;6.862;2022-09-09T05:42:33;98208.84;;;14.10;100.00
60170;BME280;46042;49.444;6.862;2022-09-09T05:45:00;98211.22;;;14.13;100.00
60170;BME280;46042;49.444;6.862;2022-09-09T05:47:30;98207.03;;;14.10;100.00
60170;BME280;46042;49.444;6.862;2022-09-09T05:49:56;98216.66;;;14.11;100.00
60170;BME280;46042;49.444;6.862;2022-09-09T05:52:23;98214.84;;;14.12;100.00
60170;BME280;46042;49.444;6.862;2022-09-09T05:54:51;98219.19;;;14.13;100.00
60170;BME280;46042;49.444;6.862;2022-09-09T05:57:18;98227.69;;;14.16;100.00
60170;BME280;46042;49.444;6.862;2022-09-09T05:59:45;98218.63;;;14.19;100.00
60170;BME280;46042;49.444;6.862;2022-09-09T06:02:12;98212.09;;;14.13;100.00
60170;BME280;46042;49.444;6.862;2022-09-09T06:04:39;98222.41;;;14.16;100.00
60170;BME280;46042;49.444;6.862;2022-09-09T06:07:06;98224.91;;;14.18;100.00
60170;BME280;46042;49.444;6.862;2022-09-09T06:09:33;98221.28;;;14.19;100.00
60170;BME280;46042;49.444;6.862;2022-09-09T06:12:00;98222.94;;;14.20;100.00
60170;BME280;46042;49.444;6.862;2022-09-09T06:14:26;98224.66;;;14.21;100.00
60170;BME280;46042;49.444;6.862;2022-09-09T06:16:53;98223.94;;;14.19;100.00
60170;BME280;46042;49.444;6.862;2022-09-09T06:19:20;98218.38;;;14.22;100.00
60170;BME280;46042;49.444;6.862;2022-09-09T06:21:46;98220.19;;;14.21;100.00
60170;BME280;46042;49.444;6.862;2022-09-09T06:24:14;98218.22;;;14.23;100.00
60170;BME280;46042;49.444;6.862;2022-09-09T06:26:43;98215.31;;;14.27;100.00
60170;BME280;46042;49.444;6.862;2022-09-09T06:29:10;98212.94;;;14.23;100.00
60170;BME280;46042;49.444;6.862;2022-09-09T06:31:37;98216.44;;;14.24;100.00
60170;BME280;46042;49.444;6.862;2022-09-09T06:34:06;98218.22;;;14.23;100.00
60170;BME280;46042;49.444;6.862;2022-09-09T06:36:35;98227.16;;;14.22;100.00
60170;BME280;46042;49.444;6.862;2022-09-09T06:39:03;98225.19;;;14.25;100.00
60170;BME280;46042;49.444;6.862;2022-09-09T06:41:31;98219.63;;;14.28;100.00
60170;BME280;46042;49.444;6.862;2022-09-09T06:43:58;98224.69;;;14.31;100.00
60170;BME280;46042;49.444;6.862;2022-09-09T06:46:28;98224.41;;;14.34;100.00
60170;BME280;46042;49.444;6.862;2022-09-09T06:48:55;98222.56;;;14.34;100.00
60170;BME280;46042;49.444;6.862;2022-09-09T06:51:25;98227.19;;;14.32;100.00
60170;BME280;46042;49.444;6.862;2022-09-09T06:53:57;98224.69;;;14.31;100.00
60170;BME280;46042;49.444;6.862;2022-09-09T06:56:35;98230.81;;;14.41;100.00
60170;BME280;46042;49.444;6.862;2022-09-09T06:59:04;98218.97;;;14.45;100.00
60170;BME280;46042;49.444;6.862;2022-09-09T07:01:37;98226.91;;;14.45;100.00
60170;BME280;46042;49.444;6.862;2022-09-09T07:04:04;98231.97;;;14.48;100.00
60170;BME280;46042;49.444;6.862;2022-09-09T07:06:36;98233.50;;;14.51;100.00
60170;BME280;46042;49.444;6.862;2022-09-09T07:09:11;98242.88;;;14.55;100.00
60170;BME280;46042;49.444;6.862;2022-09-09T07:11:43;98243.72;;;14.65;100.00
60170;BME280;46042;49.444;6.862;2022-09-09T07:14:11;98241.25;;;14.74;100.00
60170;BME280;46042;49.444;6.862;2022-09-09T07:16:41;98244.16;;;14.81;100.00
60170;BME280;46042;49.444;6.862;2022-09-09T07:19:09;98246.81;;;14.81;100.00
60170;BME280;46042;49.444;6.862;2022-09-09T07:21:36;98250.03;;;14.94;100.00
60170;BME280;46042;49.444;6.862;2022-09-09T07:24:03;98244.19;;;15.00;100.00
60170;BME280;46042;49.444;6.862;2022-09-09T07:26:34;98238.72;;;15.12;100.00
60170;BME280;46042;49.444;6.862;2022-09-09T07:29:00;98241.84;;;15.07;98.62
60170;BME280;46042;49.444;6.862;2022-09-09T07:31:29;98252.28;;;15.18;100.00
60170;BME280;46042;49.444;6.862;2022-09-09T07:33:59;98244.91;;;15.12;98.50
60170;BME280;46042;49.444;6.862;2022-09-09T07:36:29;98245.47;;;15.16;99.04
60170;BME280;46042;49.444;6.862;2022-09-09T07:39:19;98247.84;;;15.09;96.30
60170;BME280;46042;49.444;6.862;2022-09-09T07:41:49;98262.75;;;15.10;97.59
60170;BME280;46042;49.444;6.862;2022-09-09T07:44:19;98256.47;;;15.11;97.80
60170;BME280;46042;49.444;6.862;2022-09-09T07:46:47;98263.06;;;15.07;98.11
60170;BME280;46042;49.444;6.862;2022-09-09T07:49:15;98252.16;;;15.10;95.13
60170;BME280;46042;49.444;6.862;2022-09-09T07:51:44;98258.28;;;15.11;95.85
60170;BME280;46042;49.444;6.862;2022-09-09T07:54:14;98246.00;;;15.10;94.03
60170;BME280;46042;49.444;6.862;2022-09-09T07:56:41;98246.69;;;15.21;93.12
60170;BME280;46042;49.444;6.862;2022-09-09T07:59:08;98235.81;;;15.34;91.25
60170;BME280;46042;49.444;6.862;2022-09-09T08:01:38;98242.22;;;15.42;90.58
60170;BME280;46042;49.444;6.862;2022-09-09T08:04:08;98245.94;;;15.49;91.21
60170;BME280;46042;49.444;6.862;2022-09-09T08:06:37;98262.47;;;15.43;91.27
60170;BME280;46042;49.444;6.862;2022-09-09T08:09:06;98260.78;;;15.42;91.33
60170;BME280;46042;49.444;6.862;2022-09-09T08:11:33;98255.06;;;15.46;91.77
60170;BME280;46042;49.444;6.862;2022-09-09T08:14:05;98251.34;;;15.77;94.99
60170;BME280;46042;49.444;6.862;2022-09-09T08:16:33;98262.63;;;15.99;87.45
60170;BME280;46042;49.444;6.862;2022-09-09T08:19:03;98255.44;;;16.19;85.06
60170;BME280;46042;49.444;6.862;2022-09-09T08:21:31;98252.50;;;16.12;85.37
60170;BME280;46042;49.444;6.862;2022-09-09T08:24:00;98253.00;;;15.98;84.71
60170;BME280;46042;49.444;6.862;2022-09-09T08:26:33;98250.63;;;15.95;84.26
60170;BME280;46042;49.444;6.862;2022-09-09T08:29:02;98247.56;;;15.79;84.88
60170;BME280;46042;49.444;6.862;2022-09-09T08:31:35;98241.41;;;15.79;85.19
60170;BME280;46042;49.444;6.862;2022-09-09T08:34:04;98236.63;;;16.02;87.64
60170;BME280;46042;49.444;6.862;2022-09-09T08:36:37;98242.03;;;16.39;85.34
60170;BME280;46042;49.444;6.862;2022-09-09T08:39:06;98252.50;;;16.68;82.40
60170;BME280;46042;49.444;6.862;2022-09-09T08:47:19;98249.59;;;17.52;80.91
60170;BME280;46042;49.444;6.862;2022-09-09T08:58:28;98257.94;;;17.31;80.53
60170;BME280;46042;49.444;6.862;2022-09-09T09:04:07;98256.38;;;16.56;82.72
60170;BME280;46042;49.444;6.862;2022-09-09T09:09:33;98264.88;;;16.31;83.53
60170;BME280;46042;49.444;6.862;2022-09-09T09:12:15;98256.97;;;16.21;85.55
60170;BME280;46042;49.444;6.862;2022-09-09T09:14:44;98271.63;;;16.26;87.36
60170;BME280;46042;49.444;6.862;2022-09-09T09:17:15;98261.81;;;16.26;90.20
60170;BME280;46042;49.444;6.862;2022-09-09T09:19:44;98273.13;;;16.00;89.87
60170;BME280;46042;49.444;6.862;2022-09-09T09:27:33;98256.78;;;15.95;94.97
60170;BME280;46042;49.444;6.862;2022-09-09T09:30:02;98237.84;;;16.08;95.10
60170;BME280;46042;49.444;6.862;2022-09-09T09:33:02;98241.78;;;16.32;97.44
60170;BME280;46042;49.444;6.862;2022-09-09T09:35:32;98250.41;;;16.90;100.00
60170;BME280;46042;49.444;6.862;2022-09-09T09:38:17;98249.44;;;17.80;100.00
60170;BME280;46042;49.444;6.862;2022-09-09T09:41:04;98243.59;;;18.03;93.48
60170;BME280;46042;49.444;6.862;2022-09-09T09:43:32;98240.00;;;17.86;90.01
60170;BME280;46042;49.444;6.862;2022-09-09T09:45:59;98231.25;;;17.23;85.33
60170;BME280;46042;49.444;6.862;2022-09-09T09:48:42;98233.97;;;16.76;88.40
60170;BME280;46042;49.444;6.862;2022-09-09T09:51:11;98240.91;;;16.41;88.37
60170;BME280;46042;49.444;6.862;2022-09-09T09:53:43;98240.84;;;16.23;92.17
60170;BME280;46042;49.444;6.862;2022-09-09T09:56:12;98249.97;;;16.20;93.91
60170;BME280;46042;49.444;6.862;2022-09-09T10:01:29;98264.63;;;15.77;98.08
60170;BME280;46042;49.444;6.862;2022-09-09T10:03:57;98268.88;;;15.60;100.00
60170;BME280;46042;49.444;6.862;2022-09-09T10:06:36;98278.78;;;15.38;100.00
60170;BME280;46042;49.444;6.862;2022-09-09T10:34:55;98260.44;;;16.50;100.00
60170;BME280;46042;49.444;6.862;2022-09-09T10:41:07;98254.16;;;18.56;100.00
60170;BME280;46042;49.444;6.862;2022-09-09T10:43:49;98255.94;;;19.40;88.83
60170;BME280;46042;49.444;6.862;2022-09-09T10:46:46;98243.75;;;19.70;87.90
60170;BME280;46042;49.444;6.862;2022-09-09T10:55:09;98241.47;;;20.87;87.08
60170;BME280;46042;49.444;6.862;2022-09-09T10:57:48;98230.81;;;21.02;78.65
60170;BME280;46042;49.444;6.862;2022-09-09T11:00:40;98231.53;;;20.96;78.89
60170;BME280;46042;49.444;6.862;2022-09-09T11:03:20;98224.22;;;20.26;73.63
60170;BME280;46042;49.444;6.862;2022-09-09T11:06:04;98225.38;;;19.75;85.02
60170;BME280;46042;49.444;6.862;2022-09-09T11:08:34;98227.00;;;19.93;82.25
60170;BME280;46042;49.444;6.862;2022-09-09T11:11:19;98218.75;;;20.83;86.52
60170;BME280;46042;49.444;6.862;2022-09-09T11:16:30;98209.47;;;20.94;75.25
60170;BME280;46042;49.444;6.862;2022-09-09T11:19:41;98206.34;;;21.28;73.78
60170;BME280;46042;49.444;6.862;2022-09-09T11:23:22;98203.09;;;21.18;67.01
60170;BME280;46042;49.444;6.862;2022-09-09T11:30:20;98193.44;;;22.37;73.79
60170;BME280;46042;49.444;6.862;2022-09-09T11:41:44;98175.31;;;22.24;69.76
60170;BME280;46042;49.444;6.862;2022-09-09T11:44:13;98175.81;;;21.98;67.07
60170;BME280;46042;49.444;6.862;2022-09-09T11:46:46;98178.63;;;21.90;64.76
60170;BME280;46042;49.444;6.862;2022-09-09T11:52:21;98174.81;;;20.69;67.37
60170;BME280;46042;49.444;6.862;2022-09-09T11:54:49;98190.28;;;19.79;67.56
60170;BME280;46042;49.444;6.862;2022-09-09T11:57:45;98219.41;;;19.24;73.63
60170;BME280;46042;49.444;6.862;2022-09-09T12:00:38;98219.41;;;19.24;80.92
60170;BME280;46042;49.444;6.862;2022-09-09T12:05:59;98209.72;;;19.56;79.19
60170;BME280;46042;49.444;6.862;2022-09-09T12:08:28;98207.22;;;20.11;83.93
60170;BME280;46042;49.444;6.862;2022-09-09T12:10:57;98204.09;;;19.90;78.08
60170;BME280;46042;49.444;6.862;2022-09-09T12:13:26;98192.81;;;19.64;79.12
60170;BME280;46042;49.444;6.862;2022-09-09T12:15:55;98196.88;;;19.35;78.46
60170;BME280;46042;49.444;6.862;2022-09-09T12:18:36;98203.38;;;18.90;79.22
60170;BME280;46042;49.444;6.862;2022-09-09T12:24:13;98229.56;;;18.27;80.90
60170;BME280;46042;49.444;6.862;2022-09-09T12:26:47;98234.00;;;18.10;80.48
60170;BME280;46042;49.444;6.862;2022-09-09T12:29:53;98228.09;;;19.17;84.82
60170;BME280;46042;49.444;6.862;2022-09-09T12:32:25;98225.19;;;20.33;81.08
60170;BME280;46042;49.444;6.862;2022-09-09T12:35:04;98221.09;;;20.78;79.82
60170;BME280;46042;49.444;6.862;2022-09-09T12:37:39;98211.94;;;21.18;83.07
60170;BME280;46042;49.444;6.862;2022-09-09T12:42:52;98202.09;;;21.87;70.19
60170;BME280;46042;49.444;6.862;2022-09-09T12:45:26;98205.03;;;22.08;72.40
60170;BME280;46042;49.444;6.862;2022-09-09T12:48:05;98209.13;;;22.03;68.64
60170;BME280;46042;49.444;6.862;2022-09-09T12:50:38;98211.78;;;21.20;68.28
60170;BME280;46042;49.444;6.862;2022-09-09T12:53:15;98203.34;;;20.85;70.62
60170;BME280;46042;49.444;6.862;2022-09-09T12:55:57;98197.28;;;20.28;70.66
60170;BME280;46042;49.444;6.862;2022-09-09T12:58:25;98207.13;;;19.87;72.33
60170;BME280;46042;49.444;6.862;2022-09-09T13:00:55;98201.34;;;19.51;73.01
60170;BME280;46042;49.444;6.862;2022-09-09T13:03:24;98201.22;;;19.02;75.23
60170;BME280;46042;49.444;6.862;2022-09-09T13:05:52;98196.16;;;18.74;78.55
60170;BME280;46042;49.444;6.862;2022-09-09T13:08:19;98192.50;;;18.67;80.35
60170;BME280;46042;49.444;6.862;2022-09-09T13:10:51;98192.97;;;18.54;80.77
60170;BME280;46042;49.444;6.862;2022-09-09T13:13:29;98198.53;;;18.18;85.00
60170;BME280;46042;49.444;6.862;2022-09-09T13:16:00;98200.56;;;17.89;85.19
60170;BME280;46042;49.444;6.862;2022-09-09T13:18:34;98187.31;;;17.71;83.53
60170;BME280;46042;49.444;6.862;2022-09-09T13:21:02;98195.34;;;17.53;84.48
60170;BME280;46042;49.444;6.862;2022-09-09T13:23:32;98185.97;;;17.75;88.70
60170;BME280;46042;49.444;6.862;2022-09-09T13:26:53;98187.25;;;17.89;90.02
60170;BME280;46042;49.444;6.862;2022-09-09T13:28:48;98175.84;;;17.79;88.83
60170;BME280;46042;49.444;6.862;2022-09-09T13:31:30;98180.50;;;17.77;90.54
60170;BME280;46042;49.444;6.862;2022-09-09T13:36:33;98181.84;;;17.81;88.56
60170;BME280;46042;49.444;6.862;2022-09-09T13:39:02;98185.41;;;17.90;89.78
60170;BME280;46042;49.444;6.862;2022-09-09T13:41:33;98183.88;;;17.87;90.07
60170;BME280;46042;49.444;6.862;2022-09-09T13:44:02;98185.53;;;17.88;90.50
60170;BME280;46042;49.444;6.862;2022-09-09T13:49:20;98178.84;;;18.11;93.76
60170;BME280;46042;49.444;6.862;2022-09-09T13:51:50;98180.22;;;18.15;94.63
60170;BME280;46042;49.444;6.862;2022-09-09T13:54:19;98188.09;;;18.33;96.11
60170;BME280;46042;49.444;6.862;2022-09-09T13:56:47;98181.28;;;18.47;96.86
60170;BME280;46042;49.444;6.862;2022-09-09T13:59:18;98181.13;;;18.57;95.96
60170;BME280;46042;49.444;6.862;2022-09-09T14:01:47;98178.81;;;18.62;96.53
60170;BME280;46042;49.444;6.862;2022-09-09T14:04:15;98165.03;;;19.08;97.63
60170;BME280;46042;49.444;6.862;2022-09-09T14:06:42;98164.13;;;19.49;92.00
60170;BME280;46042;49.444;6.862;2022-09-09T14:09:11;98153.28;;;19.42;85.86
60170;BME280;46042;49.444;6.862;2022-09-09T14:11:38;98157.03;;;19.81;88.93
60170;BME280;46042;49.444;6.862;2022-09-09T14:14:06;98152.44;;;20.07;84.35
60170;BME280;46042;49.444;6.862;2022-09-09T14:16:34;98149.16;;;19.96;84.81
60170;BME280;46042;49.444;6.862;2022-09-09T14:19:00;98147.41;;;19.64;84.76
60170;BME280;46042;49.444;6.862;2022-09-09T14:21:28;98145.00;;;19.77;83.80
60170;BME280;46042;49.444;6.862;2022-09-09T14:23:54;98138.97;;;19.83;85.54
60170;BME280;46042;49.444;6.862;2022-09-09T14:26:21;98136.16;;;19.28;76.54
60170;BME280;46042;49.444;6.862;2022-09-09T14:28:50;98146.81;;;18.87;80.24
60170;BME280;46042;49.444;6.862;2022-09-09T14:31:21;98155.66;;;18.71;77.90
60170;BME280;46042;49.444;6.862;2022-09-09T14:33:48;98154.09;;;18.35;76.75
60170;BME280;46042;49.444;6.862;2022-09-09T14:36:15;98153.25;;;18.26;83.95
60170;BME280;46042;49.444;6.862;2022-09-09T14:38:45;98170.34;;;18.07;84.12
60170;BME280;46042;49.444;6.862;2022-09-09T14:41:14;98195.72;;;17.93;86.35
60170;BME280;46042;49.444;6.862;2022-09-09T14:43:45;98203.66;;;17.50;89.94
60170;BME280;46042;49.444;6.862;2022-09-09T14:46:14;98200.53;;;16.92;89.34
60170;BME280;46042;49.444;6.862;2022-09-09T14:48:41;98213.81;;;16.74;89.17
60170;BME280;46042;49.444;6.862;2022-09-09T14:51:10;98218.28;;;16.37;91.01
60170;BME280;46042;49.444;6.862;2022-09-09T14:53:37;98200.31;;;16.21;88.60
60170;BME280;46042;49.444;6.862;2022-09-09T14:56:13;98203.75;;;16.03;90.39
60170;BME280;46042;49.444;6.862;2022-09-09T14:58:40;98192.81;;;16.06;92.85
60170;BME280;46042;49.444;6.862;2022-09-09T15:01:12;98185.22;;;15.84;90.10
60170;BME280;46042;49.444;6.862;2022-09-09T15:03:40;98193.25;;;15.64;92.84
60170;BME280;46042;49.444;6.862;2022-09-09T15:06:09;98186.34;;;15.81;93.38
60170;BME280;46042;49.444;6.862;2022-09-09T15:08:37;98203.25;;;15.90;94.06
60170;BME280;46042;49.444;6.862;2022-09-09T15:11:09;98205.75;;;15.91;93.34
60170;BME280;46042;49.444;6.862;2022-09-09T15:13:38;98203.97;;;15.92;92.65
60170;BME280;46042;49.444;6.862;2022-09-09T15:18:33;98193.22;;;15.74;93.49
60170;BME280;46042;49.444;6.862;2022-09-09T15:21:00;98188.94;;;15.63;92.19
60170;BME280;46042;49.444;6.862;2022-09-09T15:23:31;98189.69;;;15.45;94.38
60170;BME280;46042;49.444;6.862;2022-09-09T15:25:58;98198.47;;;15.46;94.81
60170;BME280;46042;49.444;6.862;2022-09-09T15:28:25;98209.53;;;15.41;94.73